sensor_id;sensor_type;location;lat;lon;timestamp;pressure;altitude;pressure_sealevel;temperature;humidity
75938;BME280;64615;32.062;34.834;2023-08-24T00:01:15;100522.00;;;28.21;60.85
75938;BME280;64615;32.062;34.834;2023-08-24T00:03:44;100530.09;;;28.26;60.94
75938;BME280;64615;32.062;34.834;2023-08-24T00:06:11;100522.19;;;28.25;60.53
75938;BME280;64615;32.062;34.834;2023-08-24T00:08:37;100520.56;;;28.23;60.88
75938;BME280;64615;32.062;34.834;2023-08-24T00:11:03;100530.97;;;28.21;60.73
75938;BME280;64615;32.062;34.834;2023-08-24T00:13:29;100529.88;;;28.22;60.96
75938;BME280;64615;32.062;34.834;2023-08-24T00:15:55;100520.66;;;28.18;60.89
75938;BME280;64615;32.062;34.834;2023-08-24T00:18:21;100523.19;;;28.15;61.03
75938;BME280;64615;32.062;34.834;2023-08-24T00:20:48;100523.47;;;28.13;60.94
75938;BME280;64615;32.062;34.834;2023-08-24T00:23:14;100527.31;;;28.12;61.04
75938;BME280;64615;32.062;34.834;2023-08-24T00:25:39;100530.06;;;28.12;60.98
75938;BME280;64615;32.062;34.834;2023-08-24T00:28:08;100532.78;;;28.12;61.01
75938;BME280;64615;32.062;34.834;2023-08-24T00:30:34;100533.31;;;28.14;60.80
75938;BME280;64615;32.062;34.834;2023-08-24T00:32:59;100521.25;;;28.15;61.01
75938;BME280;64615;32.062;34.834;2023-08-24T00:35:25;100529.47;;;28.15;61.01
75938;BME280;64615;32.062;34.834;2023-08-24T00:37:51;100532.72;;;28.17;60.98
75938;BME280;64615;32.062;34.834;2023-08-24T00:40:17;100532.72;;;28.17;60.89
75938;BME280;64615;32.062;34.834;2023-08-24T00:42:44;100524.78;;;28.16;60.80
75938;BME280;64615;32.062;34.834;2023-08-24T00:45:12;100527.22;;;28.17;60.90
75938;BME280;64615;32.062;34.834;2023-08-24T00:47:46;100524.00;;;28.15;61.06
75938;BME280;64615;32.062;34.834;2023-08-24T00:50:13;100522.66;;;28.13;61.02
75938;BME280;64615;32.062;34.834;2023-08-24T00:52:41;100530.59;;;28.14;60.94
75938;BME280;64615;32.062;34.834;2023-08-24T00:55:07;100533.59;;;28.13;61.06
75938;BME280;64615;32.062;34.834;2023-08-24T00:57:33;100530.31;;;28.11;60.84
75938;BME280;64615;32.062;34.834;2023-08-24T01:00:03;100528.72;;;28.10;60.89
75938;BME280;64615;32.062;34.834;2023-08-24T01:02:31;100532.28;;;28.10;61.02
75938;BME280;64615;32.062;34.834;2023-08-24T01:04:58;100534.72;;;28.12;61.08
75938;BME280;64615;32.062;34.834;2023-08-24T01:07:24;100533.59;;;28.13;60.91
75938;BME280;64615;32.062;34.834;2023-08-24T01:09:52;100539.34;;;28.11;61.11
75938;BME280;64615;32.062;34.834;2023-08-24T01:12:58;100535.78;;;28.11;60.73
75938;BME280;64615;32.062;34.834;2023-08-24T01:15:36;100536.94;;;28.10;61.02
75938;BME280;64615;32.062;34.834;2023-08-24T01:18:09;100537.44;;;28.12;60.98
75938;BME280;64615;32.062;34.834;2023-08-24T01:20:37;100537.44;;;28.12;61.07
75938;BME280;64615;32.062;34.834;2023-08-24T01:23:14;100539.09;;;28.13;60.93
75938;BME280;64615;32.062;34.834;2023-08-24T01:25:53;100541.53;;;28.14;60.75
75938;BME280;64615;32.062;34.834;2023-08-24T01:28:20;100537.97;;;28.14;61.18
75938;BME280;64615;32.062;34.834;2023-08-24T01:30:47;100538.78;;;28.14;60.78
75938;BME280;64615;32.062;34.834;2023-08-24T01:33:14;100539.91;;;28.13;60.74
75938;BME280;64615;32.062;34.834;2023-08-24T01:35:41;100541.81;;;28.13;60.91
75938;BME280;64615;32.062;34.834;2023-08-24T01:38:07;100544.00;;;28.11;60.85
75938;BME280;64615;32.062;34.834;2023-08-24T01:40:43;100546.75;;;28.11;60.82
75938;BME280;64615;32.062;34.834;2023-08-24T01:43:12;100543.50;;;28.09;60.96
75938;BME280;64615;32.062;34.834;2023-08-24T01:45:39;100548.16;;;28.08;60.80
75938;BME280;64615;32.062;34.834;2023-08-24T01:48:06;100543.78;;;28.07;61.03
75938;BME280;64615;32.062;34.834;2023-08-24T01:50:34;100547.63;;;28.06;60.87
75938;BME280;64615;32.062;34.834;2023-08-24T01:53:01;100546.53;;;28.07;60.83
75938;BME280;64615;32.062;34.834;2023-08-24T01:55:27;100549.28;;;28.07;61.02
75938;BME280;64615;32.062;34.834;2023-08-24T01:57:54;100543.50;;;28.09;60.88
75938;BME280;64615;32.062;34.834;2023-08-24T02:00:20;100553.34;;;28.10;61.05
75938;BME280;64615;32.062;34.834;2023-08-24T02:02:46;100554.16;;;28.10;60.89
75938;BME280;64615;32.062;34.834;2023-08-24T02:05:11;100560.97;;;28.13;60.93
75938;BME280;64615;32.062;34.834;2023-08-24T02:07:39;100563.09;;;28.16;60.82
75938;BME280;64615;32.062;34.834;2023-08-24T02:10:06;100571.56;;;28.19;60.92
75938;BME280;64615;32.062;34.834;2023-08-24T02:12:31;100568.81;;;28.19;60.63
75938;BME280;64615;32.062;34.834;2023-08-24T02:14:57;100574.56;;;28.18;60.68
75938;BME280;64615;32.062;34.834;2023-08-24T02:17:23;100569.19;;;28.13;60.70
75938;BME280;64615;32.062;34.834;2023-08-24T02:19:49;100574.09;;;28.11;60.61
75938;BME280;64615;32.062;34.834;2023-08-24T02:22:15;100581.00;;;28.08;60.73
75938;BME280;64615;32.062;34.834;2023-08-24T02:24:41;100579.38;;;28.07;60.89
75938;BME280;64615;32.062;34.834;2023-08-24T02:27:06;100569.84;;;28.05;60.70
75938;BME280;64615;32.062;34.834;2023-08-24T02:29:32;100574.50;;;28.04;60.75
75938;BME280;64615;32.062;34.834;2023-08-24T02:31:58;100571.78;;;28.04;60.76
75938;BME280;64615;32.062;34.834;2023-08-24T02:34:23;100575.31;;;28.05;60.71
75938;BME280;64615;32.062;34.834;2023-08-24T02:36:49;100575.31;;;28.05;60.68
75938;BME280;64615;32.062;34.834;2023-08-24T02:39:14;100572.88;;;28.03;60.83
75938;BME280;64615;32.062;34.834;2023-08-24T02:41:40;100563.25;;;28.06;60.53
75938;BME280;64615;32.062;34.834;2023-08-24T02:44:06;100562.97;;;28.07;60.55
75938;BME280;64615;32.062;34.834;2023-08-24T02:46:31;100568.44;;;28.07;60.49
75938;BME280;64615;32.062;34.834;2023-08-24T02:48:57;100573.63;;;28.09;60.62
75938;BME280;64615;32.062;34.834;2023-08-24T02:51:23;100570.06;;;28.08;60.43
75938;BME280;64615;32.062;34.834;2023-08-24T02:53:49;100571.69;;;28.09;60.68
75938;BME280;64615;32.062;34.834;2023-08-24T02:56:14;100567.31;;;28.08;60.48
75938;BME280;64615;32.062;34.834;2023-08-24T02:58:40;100565.69;;;28.07;60.47
75938;BME280;64615;32.062;34.834;2023-08-24T03:01:07;100565.97;;;28.06;60.37
75938;BME280;64615;32.062;34.834;2023-08-24T03:03:33;100565.19;;;28.05;60.60
75938;BME280;64615;32.062;34.834;2023-08-24T03:06:01;100564.66;;;28.03;60.68
75938;BME280;64615;32.062;34.834;2023-08-24T03:08:29;100563.84;;;28.03;60.58
75938;BME280;64615;32.062;34.834;2023-08-24T03:10:54;100561.94;;;28.03;60.50
75938;BME280;64615;32.062;34.834;2023-08-24T03:13:20;100569.84;;;28.05;60.54
75938;BME280;64615;32.062;34.834;2023-08-24T03:15:46;100565.50;;;28.04;60.58
75938;BME280;64615;32.062;34.834;2023-08-24T03:18:12;100567.41;;;28.03;60.39
75938;BME280;64615;32.062;34.834;2023-08-24T03:20:39;100570.97;;;28.04;60.51
75938;BME280;64615;32.062;34.834;2023-08-24T03:23:05;100570.16;;;28.03;60.40
75938;BME280;64615;32.062;34.834;2023-08-24T03:25:34;100584.13;;;28.02;60.38
75938;BME280;64615;32.062;34.834;2023-08-24T03:28:00;100575.91;;;28.02;60.49
75938;BME280;64615;32.062;34.834;2023-08-24T03:30:26;100574.28;;;28.01;60.38
75938;BME280;64615;32.062;34.834;2023-08-24T03:32:51;100577.34;;;27.99;60.34
75938;BME280;64615;32.062;34.834;2023-08-24T03:35:17;100570.22;;;27.98;60.63
75938;BME280;64615;32.062;34.834;2023-08-24T03:37:43;100572.16;;;27.98;60.53
75938;BME280;64615;32.062;34.834;2023-08-24T03:40:09;100575.69;;;27.98;60.55
75938;BME280;64615;32.062;34.834;2023-08-24T03:42:34;100574.06;;;27.97;60.52
75938;BME280;64615;32.062;34.834;2023-08-24T03:45:00;100575.16;;;27.96;60.43
75938;BME280;64615;32.062;34.834;2023-08-24T03:47:25;100581.47;;;27.97;60.54
75938;BME280;64615;32.062;34.834;2023-08-24T03:49:51;100584.19;;;27.97;60.21
75938;BME280;64615;32.062;34.834;2023-08-24T03:52:17;100589.66;;;27.97;60.39
75938;BME280;64615;32.062;34.834;2023-08-24T03:54:42;100590.50;;;27.97;60.30
75938;BME280;64615;32.062;34.834;2023-08-24T03:57:08;100578.72;;;27.97;60.46
75938;BME280;64615;32.062;34.834;2023-08-24T03:59:33;100580.66;;;27.96;60.42
75938;BME280;64615;32.062;34.834;2023-08-24T04:02:00;100582.56;;;27.96;60.28
75938;BME280;64615;32.062;34.834;2023-08-24T04:04:27;100583.69;;;27.95;60.30
75938;BME280;64615;32.062;34.834;2023-08-24T04:06:53;100582.56;;;27.96;60.19
75938;BME280;64615;32.062;34.834;2023-08-24T04:09:19;100583.38;;;27.96;60.49
75938;BME280;64615;32.062;34.834;2023-08-24T04:11:44;100581.47;;;27.97;60.49
75938;BME280;64615;32.062;34.834;2023-08-24T04:14:10;100586.94;;;27.97;60.73
75938;BME280;64615;32.062;34.834;2023-08-24T04:16:36;100583.91;;;27.98;60.72
75938;BME280;64615;32.062;34.834;2023-08-24T04:19:01;100579.75;;;28.01;60.60
75938;BME280;64615;32.062;34.834;2023-08-24T04:21:27;100593.06;;;28.07;60.46
75938;BME280;64615;32.062;34.834;2023-08-24T04:23:53;100590.78;;;28.14;60.27
75938;BME280;64615;32.062;34.834;2023-08-24T04:26:18;100592.19;;;28.12;60.22
75938;BME280;64615;32.062;34.834;2023-08-24T04:28:44;100590.28;;;28.12;60.39
75938;BME280;64615;32.062;34.834;2023-08-24T04:31:10;100591.09;;;28.13;60.07
75938;BME280;64615;32.062;34.834;2023-08-24T04:33:35;100600.03;;;28.18;60.09
75938;BME280;64615;32.062;34.834;2023-08-24T04:36:02;100593.16;;;28.21;59.97
75938;BME280;64615;32.062;34.834;2023-08-24T04:38:28;100593.66;;;28.23;60.00
75938;BME280;64615;32.062;34.834;2023-08-24T04:40:55;100591.94;;;28.27;59.93
75938;BME280;64615;32.062;34.834;2023-08-24T04:43:22;100587.59;;;28.26;59.88
75938;BME280;64615;32.062;34.834;2023-08-24T04:45:49;100593.28;;;28.30;59.87
75938;BME280;64615;32.062;34.834;2023-08-24T04:48:21;100595.72;;;28.31;59.69
75938;BME280;64615;32.062;34.834;2023-08-24T04:50:47;100593.47;;;28.33;59.88
75938;BME280;64615;32.062;34.834;2023-08-24T04:53:16;100599.19;;;28.37;60.00
75938;BME280;64615;32.062;34.834;2023-08-24T04:55:43;100609.63;;;28.35;59.62
75938;BME280;64615;32.062;34.834;2023-08-24T04:58:09;100606.25;;;28.38;59.65
75938;BME280;64615;32.062;34.834;2023-08-24T05:00:35;100603.53;;;28.38;59.68
75938;BME280;64615;32.062;34.834;2023-08-24T05:03:02;100602.41;;;28.39;59.33
75938;BME280;64615;32.062;34.834;2023-08-24T05:05:31;100602.13;;;28.40;59.77
75938;BME280;64615;32.062;34.834;2023-08-24T05:07:58;100595.31;;;28.38;59.77
75938;BME280;64615;32.062;34.834;2023-08-24T05:10:24;100598.88;;;28.38;59.77
75938;BME280;64615;32.062;34.834;2023-08-24T05:12:50;100594.50;;;28.37;59.80
75938;BME280;64615;32.062;34.834;2023-08-24T05:15:15;100589.53;;;28.39;59.80
75938;BME280;64615;32.062;34.834;2023-08-24T05:17:41;100594.41;;;28.42;59.94
75938;BME280;64615;32.062;34.834;2023-08-24T05:20:07;100588.63;;;28.44;59.81
75938;BME280;64615;32.062;34.834;2023-08-24T05:22:36;100589.16;;;28.46;59.79
75938;BME280;64615;32.062;34.834;2023-08-24T05:25:02;100585.53;;;28.50;59.50
75938;BME280;64615;32.062;34.834;2023-08-24T05:27:27;100590.72;;;28.52;59.71
75938;BME280;64615;32.062;34.834;2023-08-24T05:29:53;100592.00;;;28.54;59.46
75938;BME280;64615;32.062;34.834;2023-08-24T05:32:18;100593.66;;;28.55;59.46
75938;BME280;64615;32.062;34.834;2023-08-24T05:34:45;100596.09;;;28.57;59.19
75938;BME280;64615;32.062;34.834;2023-08-24T05:37:11;100591.09;;;28.59;59.51
75938;BME280;64615;32.062;34.834;2023-08-24T05:39:37;100591.63;;;28.61;59.06
75938;BME280;64615;32.062;34.834;2023-08-24T05:42:04;100586.06;;;28.66;58.86
75938;BME280;64615;32.062;34.834;2023-08-24T05:44:29;100590.09;;;28.69;59.11
75938;BME280;64615;32.062;34.834;2023-08-24T05:46:55;100597.22;;;28.70;59.11
75938;BME280;64615;32.062;34.834;2023-08-24T05:49:21;100602.41;;;28.71;59.02
75938;BME280;64615;32.062;34.834;2023-08-24T05:51:46;100594.72;;;28.73;59.01
75938;BME280;64615;32.062;34.834;2023-08-24T05:54:12;100594.41;;;28.75;59.03
75938;BME280;64615;32.062;34.834;2023-08-24T05:56:39;100603.16;;;28.77;58.94
75938;BME280;64615;32.062;34.834;2023-08-24T05:59:04;100602.03;;;28.78;59.04
75938;BME280;64615;32.062;34.834;2023-08-24T06:01:30;100588.34;;;28.78;58.69
75938;BME280;64615;32.062;34.834;2023-08-24T06:03:55;100595.13;;;28.80;58.90
75938;BME280;64615;32.062;34.834;2023-08-24T06:06:22;100596.47;;;28.83;58.65
75938;BME280;64615;32.062;34.834;2023-08-24T06:08:47;100592.81;;;28.87;58.82
75938;BME280;64615;32.062;34.834;2023-08-24T06:11:13;100585.50;;;28.96;58.58
75938;BME280;64615;32.062;34.834;2023-08-24T06:13:38;100588.47;;;29.63;56.43
75938;BME280;64615;32.062;34.834;2023-08-24T06:16:04;100582.13;;;29.90;55.99
75938;BME280;64615;32.062;34.834;2023-08-24T06:18:30;100582.50;;;29.97;55.63
75938;BME280;64615;32.062;34.834;2023-08-24T06:20:55;100575.16;;;30.06;55.48
75938;BME280;64615;32.062;34.834;2023-08-24T06:23:21;100577.16;;;30.14;55.36
75938;BME280;64615;32.062;34.834;2023-08-24T06:25:47;100589.13;;;30.18;55.10
75938;BME280;64615;32.062;34.834;2023-08-24T06:28:13;100587.75;;;30.29;55.05
75938;BME280;64615;32.062;34.834;2023-08-24T06:30:42;100583.06;;;30.30;54.98
75938;BME280;64615;32.062;34.834;2023-08-24T06:33:12;100579.31;;;30.26;54.42
75938;BME280;64615;32.062;34.834;2023-08-24T06:35:38;100583.22;;;30.25;54.49
75938;BME280;64615;32.062;34.834;2023-08-24T06:38:04;100581.88;;;30.22;55.29
75938;BME280;64615;32.062;34.834;2023-08-24T06:40:30;100587.69;;;30.21;55.41
75938;BME280;64615;32.062;34.834;2023-08-24T06:42:56;100580.88;;;30.18;55.81
75938;BME280;64615;32.062;34.834;2023-08-24T06:45:22;100580.88;;;30.18;55.33
75938;BME280;64615;32.062;34.834;2023-08-24T06:47:48;100572.34;;;30.20;55.44
75938;BME280;64615;32.062;34.834;2023-08-24T06:50:14;100578.16;;;30.18;55.49
75938;BME280;64615;32.062;34.834;2023-08-24T06:52:41;100574.28;;;30.19;55.23
75938;BME280;64615;32.062;34.834;2023-08-24T06:55:08;100572.00;;;30.21;55.41
75938;BME280;64615;32.062;34.834;2023-08-24T06:57:35;100577.34;;;30.18;55.46
75938;BME280;64615;32.062;34.834;2023-08-24T07:00:01;100582.81;;;30.18;55.38
75938;BME280;64615;32.062;34.834;2023-08-24T07:02:26;100574.06;;;30.16;55.50
75938;BME280;64615;32.062;34.834;2023-08-24T07:04:52;100575.19;;;30.15;55.62
75938;BME280;64615;32.062;34.834;2023-08-24T07:07:17;100574.41;;;30.14;56.12
75938;BME280;64615;32.062;34.834;2023-08-24T07:09:43;100581.84;;;30.14;55.87
75938;BME280;64615;32.062;34.834;2023-08-24T07:12:09;100576.34;;;30.14;55.87
75938;BME280;64615;32.062;34.834;2023-08-24T07:14:38;100576.34;;;30.14;56.20
75938;BME280;64615;32.062;34.834;2023-08-24T07:17:05;100581.03;;;30.13;56.08
75938;BME280;64615;32.062;34.834;2023-08-24T07:19:31;100573.91;;;30.12;56.20
75938;BME280;64615;32.062;34.834;2023-08-24T07:21:57;100572.78;;;30.13;55.70
75938;BME280;64615;32.062;34.834;2023-08-24T07:24:22;100571.97;;;30.13;55.89
75938;BME280;64615;32.062;34.834;2023-08-24T07:26:52;100568.72;;;29.88;56.90
75938;BME280;64615;32.062;34.834;2023-08-24T07:29:19;100551.97;;;29.76;57.26
75938;BME280;64615;32.062;34.834;2023-08-24T07:31:44;100567.56;;;29.67;57.38
75938;BME280;64615;32.062;34.834;2023-08-24T07:34:10;100574.75;;;29.63;57.38
75938;BME280;64615;32.062;34.834;2023-08-24T07:36:36;100558.41;;;29.58;57.71
75938;BME280;64615;32.062;34.834;2023-08-24T07:39:01;100564.53;;;29.55;57.83
75938;BME280;64615;32.062;34.834;2023-08-24T07:41:27;100578.06;;;29.52;57.91
75938;BME280;64615;32.062;34.834;2023-08-24T07:43:53;100578.66;;;29.48;57.98
75938;BME280;64615;32.062;34.834;2023-08-24T07:46:18;100576.56;;;29.45;58.23
75938;BME280;64615;32.062;34.834;2023-08-24T07:48:44;100579.59;;;29.44;58.25
75938;BME280;64615;32.062;34.834;2023-08-24T07:51:09;100565.06;;;29.43;58.17
75938;BME280;64615;32.062;34.834;2023-08-24T07:53:35;100570.06;;;29.41;57.93
75938;BME280;64615;32.062;34.834;2023-08-24T07:56:01;100571.19;;;29.40;58.27
75938;BME280;64615;32.062;34.834;2023-08-24T07:58:27;100569.03;;;29.37;58.13
75938;BME280;64615;32.062;34.834;2023-08-24T08:00:53;100575.97;;;29.35;57.94
75938;BME280;64615;32.062;34.834;2023-08-24T08:03:19;100566.91;;;29.34;58.20
75938;BME280;64615;32.062;34.834;2023-08-24T08:05:46;100570.78;;;29.33;58.44
75938;BME280;64615;32.062;34.834;2023-08-24T08:08:16;100564.47;;;29.33;58.29
75938;BME280;64615;32.062;34.834;2023-08-24T08:10:42;100563.97;;;29.31;58.43
75938;BME280;64615;32.062;34.834;2023-08-24T08:13:08;100556.84;;;29.30;58.52
75938;BME280;64615;32.062;34.834;2023-08-24T08:15:36;100560.19;;;29.27;58.36
75938;BME280;64615;32.062;34.834;2023-08-24T08:18:04;100560.50;;;29.25;58.29
75938;BME280;64615;32.062;34.834;2023-08-24T08:20:31;100562.22;;;29.21;58.19
75938;BME280;64615;32.062;34.834;2023-08-24T08:22:58;100562.22;;;29.21;58.45
75938;BME280;64615;32.062;34.834;2023-08-24T08:25:24;100559.47;;;29.21;58.60
75938;BME280;64615;32.062;34.834;2023-08-24T08:27:49;100561.72;;;29.19;58.25
75938;BME280;64615;32.062;34.834;2023-08-24T08:30:15;100553.81;;;29.18;58.38
75938;BME280;64615;32.062;34.834;2023-08-24T08:32:41;100548.31;;;29.18;58.37
75938;BME280;64615;32.062;34.834;2023-08-24T08:35:08;100557.66;;;29.17;58.45
75938;BME280;64615;32.062;34.834;2023-08-24T08:37:34;100569.44;;;29.17;58.56
75938;BME280;64615;32.062;34.834;2023-08-24T08:39:59;100558.78;;;29.16;58.49
75938;BME280;64615;32.062;34.834;2023-08-24T08:42:25;100563.78;;;29.14;58.71
75938;BME280;64615;32.062;34.834;2023-08-24T08:44:51;100564.59;;;29.14;58.29
75938;BME280;64615;32.062;34.834;2023-08-24T08:47:20;100555.84;;;29.12;58.31
75938;BME280;64615;32.062;34.834;2023-08-24T08:49:48;100556.94;;;29.11;58.42
75938;BME280;64615;32.062;34.834;2023-08-24T08:52:14;100562.44;;;29.11;58.36
75938;BME280;64615;32.062;34.834;2023-08-24T08:54:40;100553.41;;;29.11;58.86
75938;BME280;64615;32.062;34.834;2023-08-24T08:57:06;100552.28;;;29.12;58.29
75938;BME280;64615;32.062;34.834;2023-08-24T08:59:32;100552.81;;;29.14;58.68
75938;BME280;64615;32.062;34.834;2023-08-24T09:02:00;100551.06;;;29.18;58.35
75938;BME280;64615;32.062;34.834;2023-08-24T09:04:28;100556.03;;;29.16;58.56
75938;BME280;64615;32.062;34.834;2023-08-24T09:06:55;100556.03;;;29.16;58.98
75938;BME280;64615;32.062;34.834;2023-08-24T09:09:21;100555.72;;;29.17;58.47
75938;BME280;64615;32.062;34.834;2023-08-24T09:11:48;100547.50;;;29.17;58.38
75938;BME280;64615;32.062;34.834;2023-08-24T09:14:14;100555.31;;;29.24;58.46
75938;BME280;64615;32.062;34.834;2023-08-24T09:16:41;100551.47;;;29.25;58.66
75938;BME280;64615;32.062;34.834;2023-08-24T09:19:10;100546.81;;;29.25;58.73
75938;BME280;64615;32.062;34.834;2023-08-24T09:21:39;100545.66;;;29.26;58.79
75938;BME280;64615;32.062;34.834;2023-08-24T09:24:07;100539.38;;;29.26;58.37
75938;BME280;64615;32.062;34.834;2023-08-24T09:26:35;100539.38;;;29.26;58.35
75938;BME280;64615;32.062;34.834;2023-08-24T09:29:14;100532.28;;;29.25;58.34
75938;BME280;64615;32.062;34.834;2023-08-24T09:31:40;100537.72;;;28.29;59.68
75938;BME280;64615;32.062;34.834;2023-08-24T09:34:06;100533.94;;;27.36;60.38
75938;BME280;64615;32.062;34.834;2023-08-24T09:36:36;100526.25;;;26.96;59.00
75938;BME280;64615;32.062;34.834;2023-08-24T09:39:03;100526.81;;;27.17;58.88
75938;BME280;64615;32.062;34.834;2023-08-24T09:41:43;100525.34;;;27.06;59.26
75938;BME280;64615;32.062;34.834;2023-08-24T09:44:09;100521.31;;;26.74;58.48
75938;BME280;64615;32.062;34.834;2023-08-24T09:46:36;100519.13;;;27.00;61.84
75938;BME280;64615;32.062;34.834;2023-08-24T09:49:07;100520.31;;;26.65;59.73
75938;BME280;64615;32.062;34.834;2023-08-24T09:51:37;100512.47;;;26.59;61.46
75938;BME280;64615;32.062;34.834;2023-08-24T09:54:08;100512.31;;;26.74;60.27
75938;BME280;64615;32.062;34.834;2023-08-24T09:56:38;100517.41;;;26.28;59.49
75938;BME280;64615;32.062;34.834;2023-08-24T09:59:15;100514.41;;;26.58;63.32
75938;BME280;64615;32.062;34.834;2023-08-24T10:01:47;100505.06;;;27.07;60.81
75938;BME280;64615;32.062;34.834;2023-08-24T10:04:28;100507.94;;;27.58;59.67
75938;BME280;64615;32.062;34.834;2023-08-24T10:07:06;100513.50;;;27.85;58.61
75938;BME280;64615;32.062;34.834;2023-08-24T10:09:58;100509.41;;;28.01;58.20
75938;BME280;64615;32.062;34.834;2023-08-24T10:12:24;100502.09;;;28.15;57.78
75938;BME280;64615;32.062;34.834;2023-08-24T10:15:02;100501.91;;;28.26;57.57
75938;BME280;64615;32.062;34.834;2023-08-24T10:17:29;100505.66;;;28.30;57.65
75938;BME280;64615;32.062;34.834;2023-08-24T10:19:58;100508.31;;;28.35;57.70
75938;BME280;64615;32.062;34.834;2023-08-24T10:22:28;100502.03;;;28.34;58.02
75938;BME280;64615;32.062;34.834;2023-08-24T10:24:55;100492.59;;;28.40;57.77
75938;BME280;64615;32.062;34.834;2023-08-24T10:27:26;100485.59;;;28.48;57.79
75938;BME280;64615;32.062;34.834;2023-08-24T10:29:52;100485.59;;;28.48;57.69
75938;BME280;64615;32.062;34.834;2023-08-24T10:32:19;100488.84;;;28.50;57.80
75938;BME280;64615;32.062;34.834;2023-08-24T10:34:46;100479.00;;;28.49;58.08
75938;BME280;64615;32.062;34.834;2023-08-24T10:37:12;100483.56;;;28.53;58.01
75938;BME280;64615;32.062;34.834;2023-08-24T10:39:46;100481.16;;;28.52;58.18
75938;BME280;64615;32.062;34.834;2023-08-24T10:42:13;100473.75;;;28.52;58.02
75938;BME280;64615;32.062;34.834;2023-08-24T10:44:43;100488.22;;;28.53;57.97
75938;BME280;64615;32.062;34.834;2023-08-24T10:47:20;100477.81;;;28.55;58.25
75938;BME280;64615;32.062;34.834;2023-08-24T10:54:53;100467.13;;;28.53;58.51
75938;BME280;64615;32.062;34.834;2023-08-24T11:00:00;100468.47;;;28.56;58.36
75938;BME280;64615;32.062;34.834;2023-08-24T11:02:33;100459.44;;;28.55;58.65
75938;BME280;64615;32.062;34.834;2023-08-24T11:07:59;100466.13;;;28.63;58.46
75938;BME280;64615;32.062;34.834;2023-08-24T11:10:33;100471.09;;;28.61;58.70
75938;BME280;64615;32.062;34.834;2023-08-24T11:13:09;100463.72;;;28.61;58.85
75938;BME280;64615;32.062;34.834;2023-08-24T11:15:47;100471.19;;;28.29;61.21
75938;BME280;64615;32.062;34.834;2023-08-24T11:20:49;100455.25;;;26.48;59.46
75938;BME280;64615;32.062;34.834;2023-08-24T11:23:16;100456.53;;;26.56;62.05
75938;BME280;64615;32.062;34.834;2023-08-24T11:25:42;100458.09;;;26.62;60.43
75938;BME280;64615;32.062;34.834;2023-08-24T11:28:08;100451.50;;;26.15;59.18
75938;BME280;64615;32.062;34.834;2023-08-24T11:30:34;100443.63;;;26.62;63.04
75938;BME280;64615;32.062;34.834;2023-08-24T11:33:01;100446.03;;;26.15;60.87
75938;BME280;64615;32.062;34.834;2023-08-24T11:35:28;100432.59;;;25.95;61.56
75938;BME280;64615;32.062;34.834;2023-08-24T11:37:56;100426.84;;;26.49;62.70
75938;BME280;64615;32.062;34.834;2023-08-24T11:40:22;100429.47;;;26.07;59.95
75938;BME280;64615;32.062;34.834;2023-08-24T11:42:58;100441.25;;;26.31;63.18
75938;BME280;64615;32.062;34.834;2023-08-24T11:45:32;100443.41;;;26.34;61.70
75938;BME280;64615;32.062;34.834;2023-08-24T11:48:02;100438.03;;;27.14;59.62
75938;BME280;64615;32.062;34.834;2023-08-24T11:50:30;100439.28;;;27.59;58.38
75938;BME280;64615;32.062;34.834;2023-08-24T11:52:56;100426.88;;;27.80;57.87
75938;BME280;64615;32.062;34.834;2023-08-24T11:55:25;100425.78;;;27.95;57.85
75938;BME280;64615;32.062;34.834;2023-08-24T11:57:51;100424.41;;;28.11;57.46
75938;BME280;64615;32.062;34.834;2023-08-24T12:00:20;100426.47;;;28.19;57.47
75938;BME280;64615;32.062;34.834;2023-08-24T12:02:47;100427.69;;;28.27;57.42
75938;BME280;64615;32.062;34.834;2023-08-24T12:05:24;100426.09;;;28.26;57.34
75938;BME280;64615;32.062;34.834;2023-08-24T12:07:52;100430.41;;;28.27;57.37
75938;BME280;64615;32.062;34.834;2023-08-24T12:10:19;100421.72;;;28.25;57.49
75938;BME280;64615;32.062;34.834;2023-08-24T12:12:45;100426.88;;;28.27;57.57
75938;BME280;64615;32.062;34.834;2023-08-24T12:15:20;100418.66;;;28.27;57.54
75938;BME280;64615;32.062;34.834;2023-08-24T12:17:47;100418.06;;;28.30;57.62
75938;BME280;64615;32.062;34.834;2023-08-24T12:20:21;100426.56;;;28.28;57.76
75938;BME280;64615;32.062;34.834;2023-08-24T12:22:54;100416.97;;;28.31;57.68
75938;BME280;64615;32.062;34.834;2023-08-24T12:25:24;100421.81;;;28.34;57.71
75938;BME280;64615;32.062;34.834;2023-08-24T12:28:07;100423.97;;;28.37;57.35
75938;BME280;64615;32.062;34.834;2023-08-24T12:30:43;100433.78;;;28.38;57.50
75938;BME280;64615;32.062;34.834;2023-08-24T12:33:21;100435.41;;;28.39;57.36
75938;BME280;64615;32.062;34.834;2023-08-24T12:35:46;100429.94;;;28.39;57.75
75938;BME280;64615;32.062;34.834;2023-08-24T12:38:12;100430.13;;;28.42;57.94
75938;BME280;64615;32.062;34.834;2023-08-24T12:40:38;100430.34;;;28.46;57.94
75938;BME280;64615;32.062;34.834;2023-08-24T12:43:03;100439.00;;;28.07;61.02
75938;BME280;64615;32.062;34.834;2023-08-24T12:45:29;100434.09;;;27.02;60.22
75938;BME280;64615;32.062;34.834;2023-08-24T12:47:54;100428.50;;;26.27;59.50
75938;BME280;64615;32.062;34.834;2023-08-24T12:50:20;100431.22;;;26.50;62.92
75938;BME280;64615;32.062;34.834;2023-08-24T12:52:46;100433.63;;;26.28;60.93
75938;BME280;64615;32.062;34.834;2023-08-24T12:55:12;100438.81;;;26.01;62.00